Aviation Digital Data Service (ADDS)

Output produced by METARs form (2326 UTC 20 January 2019)
found at http://www.aviationweather.gov/metar/data/
 
METAR text: OIII 202300Z 00000KT 6000 NSC 00/M06 Q1023 A3022
Conditions at: OIII (TEHRAN/MEHRABAD , IR) observed 2300 UTC 20 January 2019
Temperature: 0.0°C (32°F)
Dewpoint: -6.0°C (21°F) [RH = 64%]
Pressure (altimeter): 30.21 inches Hg (1023.0 mb)
Winds: calm
Visibility: 4 miles ( 6 km)
Ceiling: at least 12,000 feet AGL
Clouds: sky clear below 12,000 feet AGL
Weather: no significant weather observed at this time

METAR text: OIII 202255Z 00000KT 6000 NSC 00/M06 Q1023 A3022
Conditions at: OIII (TEHRAN/MEHRABAD , IR) observed 2255 UTC 20 January 2019
Temperature: 0.0°C (32°F)
Dewpoint: -6.0°C (21°F) [RH = 64%]
Pressure (altimeter): 30.21 inches Hg (1023.0 mb)
Winds: calm
Visibility: 4 miles ( 6 km)
Ceiling: at least 12,000 feet AGL
Clouds: sky clear below 12,000 feet AGL
Weather: no significant weather observed at this time

METAR text: OIII 202230Z 00000KT 6000 NSC 00/M06 Q1023 A3022
Conditions at: OIII (TEHRAN/MEHRABAD , IR) observed 2230 UTC 20 January 2019
Temperature: 0.0°C (32°F)
Dewpoint: -6.0°C (21°F) [RH = 64%]
Pressure (altimeter): 30.21 inches Hg (1023.0 mb)
Winds: calm
Visibility: 4 miles ( 6 km)
Ceiling: at least 12,000 feet AGL
Clouds: sky clear below 12,000 feet AGL
Weather: no significant weather observed at this time

METAR text: OIII 202220Z 00000KT 6000 NSC 00/M06 Q1023 A3022
Conditions at: OIII (TEHRAN/MEHRABAD , IR) observed 2220 UTC 20 January 2019
Temperature: 0.0°C (32°F)
Dewpoint: -6.0°C (21°F) [RH = 64%]
Pressure (altimeter): 30.21 inches Hg (1023.0 mb)
Winds: calm
Visibility: 4 miles ( 6 km)
Ceiling: at least 12,000 feet AGL
Clouds: sky clear below 12,000 feet AGL
Weather: no significant weather observed at this time

METAR text: OIII 202200Z 00000KT 6000 NSC 00/M06 Q1023 A3022
Conditions at: OIII (TEHRAN/MEHRABAD , IR) observed 2200 UTC 20 January 2019
Temperature: 0.0°C (32°F)
Dewpoint: -6.0°C (21°F) [RH = 64%]
Pressure (altimeter): 30.21 inches Hg (1023.0 mb)
Winds: calm
Visibility: 4 miles ( 6 km)
Ceiling: at least 12,000 feet AGL
Clouds: sky clear below 12,000 feet AGL
Weather: no significant weather observed at this time

METAR text: OIII 202156Z 00000KT 6000 NSC 00/M06 Q1023 A3022
Conditions at: OIII (TEHRAN/MEHRABAD , IR) observed 2156 UTC 20 January 2019
Temperature: 0.0°C (32°F)
Dewpoint: -6.0°C (21°F) [RH = 64%]
Pressure (altimeter): 30.21 inches Hg (1023.0 mb)
Winds: calm
Visibility: 4 miles ( 6 km)
Ceiling: at least 12,000 feet AGL
Clouds: sky clear below 12,000 feet AGL
Weather: no significant weather observed at this time

METAR text: OIII 202130Z 00000KT 6000 NSC 01/M05 Q1023 A3022
Conditions at: OIII (TEHRAN/MEHRABAD , IR) observed 2130 UTC 20 January 2019
Temperature: 1.0°C (34°F)
Dewpoint: -5.0°C (23°F) [RH = 64%]
Pressure (altimeter): 30.21 inches Hg (1023.0 mb)
Winds: calm
Visibility: 4 miles ( 6 km)
Ceiling: at least 12,000 feet AGL
Clouds: sky clear below 12,000 feet AGL
Weather: no significant weather observed at this time

METAR text: OIII 202120Z 00000KT 6000 NSC 01/M05 Q1023 A3022
Conditions at: OIII (TEHRAN/MEHRABAD , IR) observed 2120 UTC 20 January 2019
Temperature: 1.0°C (34°F)
Dewpoint: -5.0°C (23°F) [RH = 64%]
Pressure (altimeter): 30.21 inches Hg (1023.0 mb)
Winds: calm
Visibility: 4 miles ( 6 km)
Ceiling: at least 12,000 feet AGL
Clouds: sky clear below 12,000 feet AGL
Weather: no significant weather observed at this time

METAR text: OIII 202100Z 00000KT 6000 NSC 01/M05 Q1023 A3022
Conditions at: OIII (TEHRAN/MEHRABAD , IR) observed 2100 UTC 20 January 2019
Temperature: 1.0°C (34°F)
Dewpoint: -5.0°C (23°F) [RH = 64%]
Pressure (altimeter): 30.21 inches Hg (1023.0 mb)
Winds: calm
Visibility: 4 miles ( 6 km)
Ceiling: at least 12,000 feet AGL
Clouds: sky clear below 12,000 feet AGL
Weather: no significant weather observed at this time

METAR text: OIII 202056Z 00000KT 6000 NSC 01/M05 Q1023 A3022
Conditions at: OIII (TEHRAN/MEHRABAD , IR) observed 2056 UTC 20 January 2019
Temperature: 1.0°C (34°F)
Dewpoint: -5.0°C (23°F) [RH = 64%]
Pressure (altimeter): 30.21 inches Hg (1023.0 mb)
Winds: calm
Visibility: 4 miles ( 6 km)
Ceiling: at least 12,000 feet AGL
Clouds: sky clear below 12,000 feet AGL
Weather: no significant weather observed at this time

METAR text: OIII 202030Z 00000KT 6000 NSC 01/M05 Q1023 A3021
Conditions at: OIII (TEHRAN/MEHRABAD , IR) observed 2030 UTC 20 January 2019
Temperature: 1.0°C (34°F)
Dewpoint: -5.0°C (23°F) [RH = 64%]
Pressure (altimeter): 30.21 inches Hg (1023.0 mb)
Winds: calm
Visibility: 4 miles ( 6 km)
Ceiling: at least 12,000 feet AGL
Clouds: sky clear below 12,000 feet AGL
Weather: no significant weather observed at this time

METAR text: OIII 202020Z 00000KT 6000 NSC 01/M05 Q1023 A3021
Conditions at: OIII (TEHRAN/MEHRABAD , IR) observed 2020 UTC 20 January 2019
Temperature: 1.0°C (34°F)
Dewpoint: -5.0°C (23°F) [RH = 64%]
Pressure (altimeter): 30.21 inches Hg (1023.0 mb)
Winds: calm
Visibility: 4 miles ( 6 km)
Ceiling: at least 12,000 feet AGL
Clouds: sky clear below 12,000 feet AGL
Weather: no significant weather observed at this time

METAR text: OIII 202000Z 00000KT 6000 NSC 01/M05 Q1023 A3022
Conditions at: OIII (TEHRAN/MEHRABAD , IR) observed 2000 UTC 20 January 2019
Temperature: 1.0°C (34°F)
Dewpoint: -5.0°C (23°F) [RH = 64%]
Pressure (altimeter): 30.21 inches Hg (1023.0 mb)
Winds: calm
Visibility: 4 miles ( 6 km)
Ceiling: at least 12,000 feet AGL
Clouds: sky clear below 12,000 feet AGL
Weather: no significant weather observed at this time

METAR text: OIII 201959Z 00000KT 6000 NSC 01/M05 Q1023 A3022
Conditions at: OIII (TEHRAN/MEHRABAD , IR) observed 1959 UTC 20 January 2019
Temperature: 1.0°C (34°F)
Dewpoint: -5.0°C (23°F) [RH = 64%]
Pressure (altimeter): 30.21 inches Hg (1023.0 mb)
Winds: calm
Visibility: 4 miles ( 6 km)
Ceiling: at least 12,000 feet AGL
Clouds: sky clear below 12,000 feet AGL
Weather: no significant weather observed at this time

METAR text: OIII 201930Z 17004KT 6000 NSC 02/M05 Q1022 A3021
Conditions at: OIII (TEHRAN/MEHRABAD , IR) observed 1930 UTC 20 January 2019
Temperature: 2.0°C (36°F)
Dewpoint: -5.0°C (23°F) [RH = 60%]
Pressure (altimeter): 30.18 inches Hg (1022.0 mb)
Winds: from the S (170 degrees) at 5 MPH (4 knots; 2.1 m/s)
Visibility: 4 miles ( 6 km)
Ceiling: at least 12,000 feet AGL
Clouds: sky clear below 12,000 feet AGL
Weather: no significant weather observed at this time

METAR text: OIII 201925Z 17004KT 6000 NSC 02/M05 Q1022 A3021
Conditions at: OIII (TEHRAN/MEHRABAD , IR) observed 1925 UTC 20 January 2019
Temperature: 2.0°C (36°F)
Dewpoint: -5.0°C (23°F) [RH = 60%]
Pressure (altimeter): 30.18 inches Hg (1022.0 mb)
Winds: from the S (170 degrees) at 5 MPH (4 knots; 2.1 m/s)
Visibility: 4 miles ( 6 km)
Ceiling: at least 12,000 feet AGL
Clouds: sky clear below 12,000 feet AGL
Weather: no significant weather observed at this time

METAR text: OIII 201900Z 18004KT 7000 NSC 01/M05 Q1022 A3020 NOSIG
Conditions at: OIII (TEHRAN/MEHRABAD , IR) observed 1900 UTC 20 January 2019
Temperature: 1.0°C (34°F)
Dewpoint: -5.0°C (23°F) [RH = 64%]
Pressure (altimeter): 30.18 inches Hg (1022.0 mb)
Winds: from the S (180 degrees) at 5 MPH (4 knots; 2.1 m/s)
Visibility: 4 miles ( 7 km)
Ceiling: at least 12,000 feet AGL
Clouds: sky clear below 12,000 feet AGL
Weather: no significant weather observed at this time

METAR text: OIII 201830Z 00000KT 7000 NSC 02/M06 Q1022 A3019
Conditions at: OIII (TEHRAN/MEHRABAD , IR) observed 1830 UTC 20 January 2019
Temperature: 2.0°C (36°F)
Dewpoint: -6.0°C (21°F) [RH = 55%]
Pressure (altimeter): 30.18 inches Hg (1022.0 mb)
Winds: calm
Visibility: 4 miles ( 7 km)
Ceiling: at least 12,000 feet AGL
Clouds: sky clear below 12,000 feet AGL
Weather: no significant weather observed at this time

METAR text: OIII 201820Z 00000KT 7000 NSC 02/M06 Q1022 A3019
Conditions at: OIII (TEHRAN/MEHRABAD , IR) observed 1820 UTC 20 January 2019
Temperature: 2.0°C (36°F)
Dewpoint: -6.0°C (21°F) [RH = 55%]
Pressure (altimeter): 30.18 inches Hg (1022.0 mb)
Winds: calm
Visibility: 4 miles ( 7 km)
Ceiling: at least 12,000 feet AGL
Clouds: sky clear below 12,000 feet AGL
Weather: no significant weather observed at this time

METAR text: OIII 201800Z 00000KT 7000 NSC 02/M06 Q1022 A3019
Conditions at: OIII (TEHRAN/MEHRABAD , IR) observed 1800 UTC 20 January 2019
Temperature: 2.0°C (36°F)
Dewpoint: -6.0°C (21°F) [RH = 55%]
Pressure (altimeter): 30.18 inches Hg (1022.0 mb)
Winds: calm
Visibility: 4 miles ( 7 km)
Ceiling: at least 12,000 feet AGL
Clouds: sky clear below 12,000 feet AGL
Weather: no significant weather observed at this time

METAR text: OIII 201758Z 00000KT 7000 NSC 02/M06 Q1022 A3019
Conditions at: OIII (TEHRAN/MEHRABAD , IR) observed 1758 UTC 20 January 2019
Temperature: 2.0°C (36°F)
Dewpoint: -6.0°C (21°F) [RH = 55%]
Pressure (altimeter): 30.18 inches Hg (1022.0 mb)
Winds: calm
Visibility: 4 miles ( 7 km)
Ceiling: at least 12,000 feet AGL
Clouds: sky clear below 12,000 feet AGL
Weather: no significant weather observed at this time

METAR text: OIII 201700Z 00000KT 8000 NSC 03/M08 Q1021 A3018
Conditions at: OIII (TEHRAN/MEHRABAD , IR) observed 1700 UTC 20 January 2019
Temperature: 3.0°C (37°F)
Dewpoint: -8.0°C (18°F) [RH = 44%]
Pressure (altimeter): 30.15 inches Hg (1021.0 mb)
Winds: calm
Visibility: 5 miles ( 8 km)
Ceiling: at least 12,000 feet AGL
Clouds: sky clear below 12,000 feet AGL
Weather: no significant weather observed at this time

METAR text: OIII 201652Z 00000KT 8000 NSC 03/M08 Q1021 A3018
Conditions at: OIII (TEHRAN/MEHRABAD , IR) observed 1652 UTC 20 January 2019
Temperature: 3.0°C (37°F)
Dewpoint: -8.0°C (18°F) [RH = 44%]
Pressure (altimeter): 30.15 inches Hg (1021.0 mb)
Winds: calm
Visibility: 5 miles ( 8 km)
Ceiling: at least 12,000 feet AGL
Clouds: sky clear below 12,000 feet AGL
Weather: no significant weather observed at this time

METAR text: OIII 201630Z 00000KT 8000 NSC 03/M09 Q1021 A3017
Conditions at: OIII (TEHRAN/MEHRABAD , IR) observed 1630 UTC 20 January 2019
Temperature: 3.0°C (37°F)
Dewpoint: -9.0°C (16°F) [RH = 41%]
Pressure (altimeter): 30.15 inches Hg (1021.0 mb)
Winds: calm
Visibility: 5 miles ( 8 km)
Ceiling: at least 12,000 feet AGL
Clouds: sky clear below 12,000 feet AGL
Weather: no significant weather observed at this time

METAR text: OIII 201624Z 00000KT 8000 NSC 03/M09 Q1021 A3017
Conditions at: OIII (TEHRAN/MEHRABAD , IR) observed 1624 UTC 20 January 2019
Temperature: 3.0°C (37°F)
Dewpoint: -9.0°C (16°F) [RH = 41%]
Pressure (altimeter): 30.15 inches Hg (1021.0 mb)
Winds: calm
Visibility: 5 miles ( 8 km)
Ceiling: at least 12,000 feet AGL
Clouds: sky clear below 12,000 feet AGL
Weather: no significant weather observed at this time

METAR text: OIII 201600Z 22004KT 8000 NSC 04/M09 Q1021 A3017
Conditions at: OIII (TEHRAN/MEHRABAD , IR) observed 1600 UTC 20 January 2019
Temperature: 4.0°C (39°F)
Dewpoint: -9.0°C (16°F) [RH = 38%]
Pressure (altimeter): 30.15 inches Hg (1021.0 mb)
Winds: from the SW (220 degrees) at 5 MPH (4 knots; 2.1 m/s)
Visibility: 5 miles ( 8 km)
Ceiling: at least 12,000 feet AGL
Clouds: sky clear below 12,000 feet AGL
Weather: no significant weather observed at this time

METAR text: OIII 201550Z 22004KT 8000 NSC 04/M09 Q1021 A3017
Conditions at: OIII (TEHRAN/MEHRABAD , IR) observed 1550 UTC 20 January 2019
Temperature: 4.0°C (39°F)
Dewpoint: -9.0°C (16°F) [RH = 38%]
Pressure (altimeter): 30.15 inches Hg (1021.0 mb)
Winds: from the SW (220 degrees) at 5 MPH (4 knots; 2.1 m/s)
Visibility: 5 miles ( 8 km)
Ceiling: at least 12,000 feet AGL
Clouds: sky clear below 12,000 feet AGL
Weather: no significant weather observed at this time

METAR text: OIII 201530Z 22004KT 7000 NSC 04/M10 Q1021 A3017
Conditions at: OIII (TEHRAN/MEHRABAD , IR) observed 1530 UTC 20 January 2019
Temperature: 4.0°C (39°F)
Dewpoint: -10.0°C (14°F) [RH = 35%]
Pressure (altimeter): 30.15 inches Hg (1021.0 mb)
Winds: from the SW (220 degrees) at 5 MPH (4 knots; 2.1 m/s)
Visibility: 4 miles ( 7 km)
Ceiling: at least 12,000 feet AGL
Clouds: sky clear below 12,000 feet AGL
Weather: no significant weather observed at this time

METAR text: OIII 201500Z 00000KT 7000 NSC 04/M10 Q1021 A3015 NOSIG
Conditions at: OIII (TEHRAN/MEHRABAD , IR) observed 1500 UTC 20 January 2019
Temperature: 4.0°C (39°F)
Dewpoint: -10.0°C (14°F) [RH = 35%]
Pressure (altimeter): 30.15 inches Hg (1021.0 mb)
Winds: calm
Visibility: 4 miles ( 7 km)
Ceiling: at least 12,000 feet AGL
Clouds: sky clear below 12,000 feet AGL
Weather: no significant weather observed at this time

METAR text: OIII 201430Z 23004KT 7000 NSC 04/M10 Q1021 A3015
Conditions at: OIII (TEHRAN/MEHRABAD , IR) observed 1430 UTC 20 January 2019
Temperature: 4.0°C (39°F)
Dewpoint: -10.0°C (14°F) [RH = 35%]
Pressure (altimeter): 30.15 inches Hg (1021.0 mb)
Winds: from the SW (230 degrees) at 5 MPH (4 knots; 2.1 m/s)
Visibility: 4 miles ( 7 km)
Ceiling: at least 12,000 feet AGL
Clouds: sky clear below 12,000 feet AGL
Weather: no significant weather observed at this time

METAR text: OIII 201400Z 23004KT 7000 NSC 06/M09 Q1020 A3015 NOSIG
Conditions at: OIII (TEHRAN/MEHRABAD , IR) observed 1400 UTC 20 January 2019
Temperature: 6.0°C (43°F)
Dewpoint: -9.0°C (16°F) [RH = 33%]
Pressure (altimeter): 30.12 inches Hg (1020.0 mb)
Winds: from the SW (230 degrees) at 5 MPH (4 knots; 2.1 m/s)
Visibility: 4 miles ( 7 km)
Ceiling: at least 12,000 feet AGL
Clouds: sky clear below 12,000 feet AGL
Weather: no significant weather observed at this time

METAR text: OIII 201330Z 00000KT 7000 NSC 06/M10 Q1020 A3014
Conditions at: OIII (TEHRAN/MEHRABAD , IR) observed 1330 UTC 20 January 2019
Temperature: 6.0°C (43°F)
Dewpoint: -10.0°C (14°F) [RH = 31%]
Pressure (altimeter): 30.12 inches Hg (1020.0 mb)
Winds: calm
Visibility: 4 miles ( 7 km)
Ceiling: at least 12,000 feet AGL
Clouds: sky clear below 12,000 feet AGL
Weather: no significant weather observed at this time

METAR text: OIII 201300Z 26006KT 7000 NSC 07/M10 Q1020 A3014 TEMPO 5000 HZ
Conditions at: OIII (TEHRAN/MEHRABAD , IR) observed 1300 UTC 20 January 2019
Temperature: 7.0°C (45°F)
Dewpoint: -10.0°C (14°F) [RH = 29%]
Pressure (altimeter): 30.12 inches Hg (1020.0 mb)
Winds: from the W (260 degrees) at 7 MPH (6 knots; 3.1 m/s)
Visibility: 4 miles ( 7 km)
Ceiling: at least 12,000 feet AGL
Clouds: sky clear below 12,000 feet AGL
Weather: no significant weather observed at this time

METAR text: OIII 201230Z 21006KT 7000 NSC 07/M10 Q1020 A3014
Conditions at: OIII (TEHRAN/MEHRABAD , IR) observed 1230 UTC 20 January 2019
Temperature: 7.0°C (45°F)
Dewpoint: -10.0°C (14°F) [RH = 29%]
Pressure (altimeter): 30.12 inches Hg (1020.0 mb)
Winds: from the SSW (210 degrees) at 7 MPH (6 knots; 3.1 m/s)
Visibility: 4 miles ( 7 km)
Ceiling: at least 12,000 feet AGL
Clouds: sky clear below 12,000 feet AGL
Weather: no significant weather observed at this time

METAR text: OIII 201200Z 21006KT 7000 NSC 07/M09 Q1020 A3014 NOSIG
Conditions at: OIII (TEHRAN/MEHRABAD , IR) observed 1200 UTC 20 January 2019
Temperature: 7.0°C (45°F)
Dewpoint: -9.0°C (16°F) [RH = 31%]
Pressure (altimeter): 30.12 inches Hg (1020.0 mb)
Winds: from the SSW (210 degrees) at 7 MPH (6 knots; 3.1 m/s)
Visibility: 4 miles ( 7 km)
Ceiling: at least 12,000 feet AGL
Clouds: sky clear below 12,000 feet AGL
Weather: no significant weather observed at this time

METAR text: OIII 201130Z 21006KT 7000 NSC 07/M09 Q1020 A3013
Conditions at: OIII (TEHRAN/MEHRABAD , IR) observed 1130 UTC 20 January 2019
Temperature: 7.0°C (45°F)
Dewpoint: -9.0°C (16°F) [RH = 31%]
Pressure (altimeter): 30.12 inches Hg (1020.0 mb)
Winds: from the SSW (210 degrees) at 7 MPH (6 knots; 3.1 m/s)
Visibility: 4 miles ( 7 km)
Ceiling: at least 12,000 feet AGL
Clouds: sky clear below 12,000 feet AGL
Weather: no significant weather observed at this time

METAR text: OIII 201100Z 21006KT 6000 NSC 06/M08 Q1020 A3013 NOSIG
Conditions at: OIII (TEHRAN/MEHRABAD , IR) observed 1100 UTC 20 January 2019
Temperature: 6.0°C (43°F)
Dewpoint: -8.0°C (18°F) [RH = 36%]
Pressure (altimeter): 30.12 inches Hg (1020.0 mb)
Winds: from the SSW (210 degrees) at 7 MPH (6 knots; 3.1 m/s)
Visibility: 4 miles ( 6 km)
Ceiling: at least 12,000 feet AGL
Clouds: sky clear below 12,000 feet AGL
Weather: no significant weather observed at this time

METAR text: OIII 201030Z 21006KT 6000 NSC 06/M08 Q1020 A3014
Conditions at: OIII (TEHRAN/MEHRABAD , IR) observed 1030 UTC 20 January 2019
Temperature: 6.0°C (43°F)
Dewpoint: -8.0°C (18°F) [RH = 36%]
Pressure (altimeter): 30.12 inches Hg (1020.0 mb)
Winds: from the SSW (210 degrees) at 7 MPH (6 knots; 3.1 m/s)
Visibility: 4 miles ( 6 km)
Ceiling: at least 12,000 feet AGL
Clouds: sky clear below 12,000 feet AGL
Weather: no significant weather observed at this time

METAR text: OIII 201000Z 25004KT 5000 HZ NSC 06/M08 Q1020 A3014
Conditions at: OIII (TEHRAN/MEHRABAD , IR) observed 1000 UTC 20 January 2019
Temperature: 6.0°C (43°F)
Dewpoint: -8.0°C (18°F) [RH = 36%]
Pressure (altimeter): 30.12 inches Hg (1020.0 mb)
Winds: from the WSW (250 degrees) at 5 MPH (4 knots; 2.1 m/s)
Visibility: 3 miles ( 5 km)
Ceiling: at least 12,000 feet AGL
Clouds: sky clear below 12,000 feet AGL
Weather: HZ  (haze)

METAR text: OIII 200930Z 27006KT 5000 HZ NSC 05/M07 Q1020 A3014
Conditions at: OIII (TEHRAN/MEHRABAD , IR) observed 0930 UTC 20 January 2019
Temperature: 5.0°C (41°F)
Dewpoint: -7.0°C (19°F) [RH = 41%]
Pressure (altimeter): 30.12 inches Hg (1020.0 mb)
Winds: from the W (270 degrees) at 7 MPH (6 knots; 3.1 m/s)
Visibility: 3 miles ( 5 km)
Ceiling: at least 12,000 feet AGL
Clouds: sky clear below 12,000 feet AGL
Weather: HZ  (haze)

METAR text: OIII 200900Z 00000KT 6000 NSC 06/M07 Q1020 A3014 NOSIG
Conditions at: OIII (TEHRAN/MEHRABAD , IR) observed 0900 UTC 20 January 2019
Temperature: 6.0°C (43°F)
Dewpoint: -7.0°C (19°F) [RH = 39%]
Pressure (altimeter): 30.12 inches Hg (1020.0 mb)
Winds: calm
Visibility: 4 miles ( 6 km)
Ceiling: at least 12,000 feet AGL
Clouds: sky clear below 12,000 feet AGL
Weather: no significant weather observed at this time

METAR text: OIII 200830Z 00000KT 5000 HZ NSC 05/M06 Q1021 A3015 NOSIG
Conditions at: OIII (TEHRAN/MEHRABAD , IR) observed 0830 UTC 20 January 2019
Temperature: 5.0°C (41°F)
Dewpoint: -6.0°C (21°F) [RH = 45%]
Pressure (altimeter): 30.15 inches Hg (1021.0 mb)
Winds: calm
Visibility: 3 miles ( 5 km)
Ceiling: at least 12,000 feet AGL
Clouds: sky clear below 12,000 feet AGL
Weather: HZ  (haze)

METAR text: OIII 200800Z 00000KT 6000 NSC 04/M06 Q1021 A3017
Conditions at: OIII (TEHRAN/MEHRABAD , IR) observed 0800 UTC 20 January 2019
Temperature: 4.0°C (39°F)
Dewpoint: -6.0°C (21°F) [RH = 48%]
Pressure (altimeter): 30.15 inches Hg (1021.0 mb)
Winds: calm
Visibility: 4 miles ( 6 km)
Ceiling: at least 12,000 feet AGL
Clouds: sky clear below 12,000 feet AGL
Weather: no significant weather observed at this time

METAR text: OIII 200730Z 27004KT 6000 NSC 03/M06 Q1021 A3017
Conditions at: OIII (TEHRAN/MEHRABAD , IR) observed 0730 UTC 20 January 2019
Temperature: 3.0°C (37°F)
Dewpoint: -6.0°C (21°F) [RH = 52%]
Pressure (altimeter): 30.15 inches Hg (1021.0 mb)
Winds: from the W (270 degrees) at 5 MPH (4 knots; 2.1 m/s)
Visibility: 4 miles ( 6 km)
Ceiling: at least 12,000 feet AGL
Clouds: sky clear below 12,000 feet AGL
Weather: no significant weather observed at this time

METAR text: OIII 200700Z 00000KT 6000 NSC 02/M06 Q1021 A3017 NOSIG
Conditions at: OIII (TEHRAN/MEHRABAD , IR) observed 0700 UTC 20 January 2019
Temperature: 2.0°C (36°F)
Dewpoint: -6.0°C (21°F) [RH = 55%]
Pressure (altimeter): 30.15 inches Hg (1021.0 mb)
Winds: calm
Visibility: 4 miles ( 6 km)
Ceiling: at least 12,000 feet AGL
Clouds: sky clear below 12,000 feet AGL
Weather: no significant weather observed at this time

METAR text: OIII 200630Z 24004KT 6000 NSC 01/M06 Q1021 A3017
Conditions at: OIII (TEHRAN/MEHRABAD , IR) observed 0630 UTC 20 January 2019
Temperature: 1.0°C (34°F)
Dewpoint: -6.0°C (21°F) [RH = 59%]
Pressure (altimeter): 30.15 inches Hg (1021.0 mb)
Winds: from the WSW (240 degrees) at 5 MPH (4 knots; 2.1 m/s)
Visibility: 4 miles ( 6 km)
Ceiling: at least 12,000 feet AGL
Clouds: sky clear below 12,000 feet AGL
Weather: no significant weather observed at this time

METAR text: OIII 200600Z 22006KT 6000 NSC 01/M05 Q1021 A3015 TEMPO 5000 HZ
Conditions at: OIII (TEHRAN/MEHRABAD , IR) observed 0600 UTC 20 January 2019
Temperature: 1.0°C (34°F)
Dewpoint: -5.0°C (23°F) [RH = 64%]
Pressure (altimeter): 30.15 inches Hg (1021.0 mb)
Winds: from the SW (220 degrees) at 7 MPH (6 knots; 3.1 m/s)
Visibility: 4 miles ( 6 km)
Ceiling: at least 12,000 feet AGL
Clouds: sky clear below 12,000 feet AGL
Weather: no significant weather observed at this time

METAR text: OIII 200530Z 23004KT 6000 NSC 01/M05 Q1020 A3014
Conditions at: OIII (TEHRAN/MEHRABAD , IR) observed 0530 UTC 20 January 2019
Temperature: 1.0°C (34°F)
Dewpoint: -5.0°C (23°F) [RH = 64%]
Pressure (altimeter): 30.12 inches Hg (1020.0 mb)
Winds: from the SW (230 degrees) at 5 MPH (4 knots; 2.1 m/s)
Visibility: 4 miles ( 6 km)
Ceiling: at least 12,000 feet AGL
Clouds: sky clear below 12,000 feet AGL
Weather: no significant weather observed at this time

METAR text: OIII 200500Z 20004KT 6000 NSC 01/M06 Q1020 A3012 NOSIG
Conditions at: OIII (TEHRAN/MEHRABAD , IR) observed 0500 UTC 20 January 2019
Temperature: 1.0°C (34°F)
Dewpoint: -6.0°C (21°F) [RH = 59%]
Pressure (altimeter): 30.12 inches Hg (1020.0 mb)
Winds: from the SSW (200 degrees) at 5 MPH (4 knots; 2.1 m/s)
Visibility: 4 miles ( 6 km)
Ceiling: at least 12,000 feet AGL
Clouds: sky clear below 12,000 feet AGL
Weather: no significant weather observed at this time

METAR text: OIII 200430Z 00000KT 7000 NSC M00/M06 Q1019 A3011
Conditions at: OIII (TEHRAN/MEHRABAD , IR) observed 0430 UTC 20 January 2019
Temperature: 0.0°C (32°F)
Dewpoint: -6.0°C (21°F) [RH = 64%]
Pressure (altimeter): 30.09 inches Hg (1019.0 mb)
Winds: calm
Visibility: 4 miles ( 7 km)
Ceiling: at least 12,000 feet AGL
Clouds: sky clear below 12,000 feet AGL
Weather: no significant weather observed at this time

METAR text: OIII 200400Z 00000KT CAVOK M01/M07 Q1019 A3011 TEMPO 5000 HZ
Conditions at: OIII (TEHRAN/MEHRABAD , IR) observed 0400 UTC 20 January 2019
Temperature: -1.0°C (30°F)
Dewpoint: -7.0°C (19°F) [RH = 64%]
Pressure (altimeter): 30.09 inches Hg (1019.0 mb)
Winds: calm
Visibility: 6 or more miles (10+ km)
Ceiling: ceiling and visibility are OK
Clouds: unknown
Weather: no significant weather observed at this time

METAR text: OIII 200330Z 31004KT CAVOK M00/M07 Q1019 A3009
Conditions at: OIII (TEHRAN/MEHRABAD , IR) observed 0330 UTC 20 January 2019
Temperature: 0.0°C (32°F)
Dewpoint: -7.0°C (19°F) [RH = 59%]
Pressure (altimeter): 30.09 inches Hg (1019.0 mb)
Winds: from the NW (310 degrees) at 5 MPH (4 knots; 2.1 m/s)
Visibility: 6 or more miles (10+ km)
Ceiling: ceiling and visibility are OK
Clouds: unknown
Weather: no significant weather observed at this time

METAR text: OIII 200300Z 33004KT CAVOK M01/M06 Q1018 A3008 NOSIG
Conditions at: OIII (TEHRAN/MEHRABAD , IR) observed 0300 UTC 20 January 2019
Temperature: -1.0°C (30°F)
Dewpoint: -6.0°C (21°F) [RH = 69%]
Pressure (altimeter): 30.06 inches Hg (1018.0 mb)
Winds: from the NNW (330 degrees) at 5 MPH (4 knots; 2.1 m/s)
Visibility: 6 or more miles (10+ km)
Ceiling: ceiling and visibility are OK
Clouds: unknown
Weather: no significant weather observed at this time

METAR text: OIII 200230Z 30004KT CAVOK M02/M06 Q1017 A3005
Conditions at: OIII (TEHRAN/MEHRABAD , IR) observed 0230 UTC 20 January 2019
Temperature: -2.0°C (28°F)
Dewpoint: -6.0°C (21°F) [RH = 74%]
Pressure (altimeter): 30.03 inches Hg (1017.0 mb)
Winds: from the WNW (300 degrees) at 5 MPH (4 knots; 2.1 m/s)
Visibility: 6 or more miles (10+ km)
Ceiling: ceiling and visibility are OK
Clouds: unknown
Weather: no significant weather observed at this time

METAR text: OIII 200200Z 24004KT CAVOK M02/M06 Q1017 A3005 NOSIG
Conditions at: OIII (TEHRAN/MEHRABAD , IR) observed 0200 UTC 20 January 2019
Temperature: -2.0°C (28°F)
Dewpoint: -6.0°C (21°F) [RH = 74%]
Pressure (altimeter): 30.03 inches Hg (1017.0 mb)
Winds: from the WSW (240 degrees) at 5 MPH (4 knots; 2.1 m/s)
Visibility: 6 or more miles (10+ km)
Ceiling: ceiling and visibility are OK
Clouds: unknown
Weather: no significant weather observed at this time

METAR text: OIII 200130Z 24004KT CAVOK M01/M06 Q1017 A3004
Conditions at: OIII (TEHRAN/MEHRABAD , IR) observed 0130 UTC 20 January 2019
Temperature: -1.0°C (30°F)
Dewpoint: -6.0°C (21°F) [RH = 69%]
Pressure (altimeter): 30.03 inches Hg (1017.0 mb)
Winds: from the WSW (240 degrees) at 5 MPH (4 knots; 2.1 m/s)
Visibility: 6 or more miles (10+ km)
Ceiling: ceiling and visibility are OK
Clouds: unknown
Weather: no significant weather observed at this time

METAR text: OIII 200100Z 00000KT CAVOK 00/M07 Q1017 A3004 NOSIG
Conditions at: OIII (TEHRAN/MEHRABAD , IR) observed 0100 UTC 20 January 2019
Temperature: 0.0°C (32°F)
Dewpoint: -7.0°C (19°F) [RH = 59%]
Pressure (altimeter): 30.03 inches Hg (1017.0 mb)
Winds: calm
Visibility: 6 or more miles (10+ km)
Ceiling: ceiling and visibility are OK
Clouds: unknown
Weather: no significant weather observed at this time

METAR text: OIII 200030Z 00000KT CAVOK M01/M07 Q1017 A3004
Conditions at: OIII (TEHRAN/MEHRABAD , IR) observed 0030 UTC 20 January 2019
Temperature: -1.0°C (30°F)
Dewpoint: -7.0°C (19°F) [RH = 64%]
Pressure (altimeter): 30.03 inches Hg (1017.0 mb)
Winds: calm
Visibility: 6 or more miles (10+ km)
Ceiling: ceiling and visibility are OK
Clouds: unknown
Weather: no significant weather observed at this time

METAR text: OIII 200000Z 31004KT CAVOK M01/M07 Q1017 A3005 NOSIG
Conditions at: OIII (TEHRAN/MEHRABAD , IR) observed 0000 UTC 20 January 2019
Temperature: -1.0°C (30°F)
Dewpoint: -7.0°C (19°F) [RH = 64%]
Pressure (altimeter): 30.03 inches Hg (1017.0 mb)
Winds: from the NW (310 degrees) at 5 MPH (4 knots; 2.1 m/s)
Visibility: 6 or more miles (10+ km)
Ceiling: ceiling and visibility are OK
Clouds: unknown
Weather: no significant weather observed at this time

METAR text: OIII 192330Z 30004KT CAVOK M00/M06 Q1017 A3005
Conditions at: OIII (TEHRAN/MEHRABAD , IR) observed 2330 UTC 19 January 2019
Temperature: 0.0°C (32°F)
Dewpoint: -6.0°C (21°F) [RH = 64%]
Pressure (altimeter): 30.03 inches Hg (1017.0 mb)
Winds: from the WNW (300 degrees) at 5 MPH (4 knots; 2.1 m/s)
Visibility: 6 or more miles (10+ km)
Ceiling: ceiling and visibility are OK
Clouds: unknown
Weather: no significant weather observed at this time

METAR text: OIII 192300Z 31004KT CAVOK 00/M07 Q1017 A3005 NOSIG
Conditions at: OIII (TEHRAN/MEHRABAD , IR) observed 2300 UTC 19 January 2019
Temperature: 0.0°C (32°F)
Dewpoint: -7.0°C (19°F) [RH = 59%]
Pressure (altimeter): 30.03 inches Hg (1017.0 mb)
Winds: from the NW (310 degrees) at 5 MPH (4 knots; 2.1 m/s)
Visibility: 6 or more miles (10+ km)
Ceiling: ceiling and visibility are OK
Clouds: unknown
Weather: no significant weather observed at this time

METAR text: OIII 192230Z 30004KT CAVOK M00/M05 Q1017 A3005
Conditions at: OIII (TEHRAN/MEHRABAD , IR) observed 2230 UTC 19 January 2019
Temperature: 0.0°C (32°F)
Dewpoint: -5.0°C (23°F) [RH = 69%]
Pressure (altimeter): 30.03 inches Hg (1017.0 mb)
Winds: from the WNW (300 degrees) at 5 MPH (4 knots; 2.1 m/s)
Visibility: 6 or more miles (10+ km)
Ceiling: ceiling and visibility are OK
Clouds: unknown
Weather: no significant weather observed at this time

METAR text: OIII 192200Z 27004KT CAVOK M01/M06 Q1017 A3004 NOSIG
Conditions at: OIII (TEHRAN/MEHRABAD , IR) observed 2200 UTC 19 January 2019
Temperature: -1.0°C (30°F)
Dewpoint: -6.0°C (21°F) [RH = 69%]
Pressure (altimeter): 30.03 inches Hg (1017.0 mb)
Winds: from the W (270 degrees) at 5 MPH (4 knots; 2.1 m/s)
Visibility: 6 or more miles (10+ km)
Ceiling: ceiling and visibility are OK
Clouds: unknown
Weather: no significant weather observed at this time

METAR text: OIII 192130Z 30004KT CAVOK M01/M05 Q1017 A3004
Conditions at: OIII (TEHRAN/MEHRABAD , IR) observed 2130 UTC 19 January 2019
Temperature: -1.0°C (30°F)
Dewpoint: -5.0°C (23°F) [RH = 74%]
Pressure (altimeter): 30.03 inches Hg (1017.0 mb)
Winds: from the WNW (300 degrees) at 5 MPH (4 knots; 2.1 m/s)
Visibility: 6 or more miles (10+ km)
Ceiling: ceiling and visibility are OK
Clouds: unknown
Weather: no significant weather observed at this time

METAR text: OIII 192100Z 27004KT CAVOK 00/M06 Q1017 A3004 NOSIG
Conditions at: OIII (TEHRAN/MEHRABAD , IR) observed 2100 UTC 19 January 2019
Temperature: 0.0°C (32°F)
Dewpoint: -6.0°C (21°F) [RH = 64%]
Pressure (altimeter): 30.03 inches Hg (1017.0 mb)
Winds: from the W (270 degrees) at 5 MPH (4 knots; 2.1 m/s)
Visibility: 6 or more miles (10+ km)
Ceiling: ceiling and visibility are OK
Clouds: unknown
Weather: no significant weather observed at this time

METAR text: OIII 192030Z 28004KT CAVOK 00/M06 Q1017 A3003
Conditions at: OIII (TEHRAN/MEHRABAD , IR) observed 2030 UTC 19 January 2019
Temperature: 0.0°C (32°F)
Dewpoint: -6.0°C (21°F) [RH = 64%]
Pressure (altimeter): 30.03 inches Hg (1017.0 mb)
Winds: from the W (280 degrees) at 5 MPH (4 knots; 2.1 m/s)
Visibility: 6 or more miles (10+ km)
Ceiling: ceiling and visibility are OK
Clouds: unknown
Weather: no significant weather observed at this time

METAR text: OIII 192000Z 00000KT CAVOK 01/M08 Q1017 A3003
Conditions at: OIII (TEHRAN/MEHRABAD , IR) observed 2000 UTC 19 January 2019
Temperature: 1.0°C (34°F)
Dewpoint: -8.0°C (18°F) [RH = 51%]
Pressure (altimeter): 30.03 inches Hg (1017.0 mb)
Winds: calm
Visibility: 6 or more miles (10+ km)
Ceiling: ceiling and visibility are OK
Clouds: unknown
Weather: no significant weather observed at this time

METAR text: OIII 191930Z 32004KT CAVOK 02/M08 Q1017 A3004
Conditions at: OIII (TEHRAN/MEHRABAD , IR) observed 1930 UTC 19 January 2019
Temperature: 2.0°C (36°F)
Dewpoint: -8.0°C (18°F) [RH = 47%]
Pressure (altimeter): 30.03 inches Hg (1017.0 mb)
Winds: from the NW (320 degrees) at 5 MPH (4 knots; 2.1 m/s)
Visibility: 6 or more miles (10+ km)
Ceiling: ceiling and visibility are OK
Clouds: unknown
Weather: no significant weather observed at this time

METAR text: OIII 191900Z 29004KT CAVOK 01/M07 Q1017 A3004
Conditions at: OIII (TEHRAN/MEHRABAD , IR) observed 1900 UTC 19 January 2019
Temperature: 1.0°C (34°F)
Dewpoint: -7.0°C (19°F) [RH = 55%]
Pressure (altimeter): 30.03 inches Hg (1017.0 mb)
Winds: from the WNW (290 degrees) at 5 MPH (4 knots; 2.1 m/s)
Visibility: 6 or more miles (10+ km)
Ceiling: ceiling and visibility are OK
Clouds: unknown
Weather: no significant weather observed at this time

METAR text: OIII 191830Z 30004KT CAVOK 02/M07 Q1017 A3004
Conditions at: OIII (TEHRAN/MEHRABAD , IR) observed 1830 UTC 19 January 2019
Temperature: 2.0°C (36°F)
Dewpoint: -7.0°C (19°F) [RH = 51%]
Pressure (altimeter): 30.03 inches Hg (1017.0 mb)
Winds: from the WNW (300 degrees) at 5 MPH (4 knots; 2.1 m/s)
Visibility: 6 or more miles (10+ km)
Ceiling: ceiling and visibility are OK
Clouds: unknown
Weather: no significant weather observed at this time

METAR text: OIII 191800Z 30008KT CAVOK 02/M07 Q1017 A3004 NOSIG
Conditions at: OIII (TEHRAN/MEHRABAD , IR) observed 1800 UTC 19 January 2019
Temperature: 2.0°C (36°F)
Dewpoint: -7.0°C (19°F) [RH = 51%]
Pressure (altimeter): 30.03 inches Hg (1017.0 mb)
Winds: from the WNW (300 degrees) at 9 MPH (8 knots; 4.1 m/s)
Visibility: 6 or more miles (10+ km)
Ceiling: ceiling and visibility are OK
Clouds: unknown
Weather: no significant weather observed at this time

METAR text: OIII 191730Z 29008KT CAVOK 02/M06 Q1017 A3003
Conditions at: OIII (TEHRAN/MEHRABAD , IR) observed 1730 UTC 19 January 2019
Temperature: 2.0°C (36°F)
Dewpoint: -6.0°C (21°F) [RH = 55%]
Pressure (altimeter): 30.03 inches Hg (1017.0 mb)
Winds: from the WNW (290 degrees) at 9 MPH (8 knots; 4.1 m/s)
Visibility: 6 or more miles (10+ km)
Ceiling: ceiling and visibility are OK
Clouds: unknown
Weather: no significant weather observed at this time

METAR text: OIII 191700Z 27008KT CAVOK 02/M05 Q1017 A3003
Conditions at: OIII (TEHRAN/MEHRABAD , IR) observed 1700 UTC 19 January 2019
Temperature: 2.0°C (36°F)
Dewpoint: -5.0°C (23°F) [RH = 60%]
Pressure (altimeter): 30.03 inches Hg (1017.0 mb)
Winds: from the W (270 degrees) at 9 MPH (8 knots; 4.1 m/s)
Visibility: 6 or more miles (10+ km)
Ceiling: ceiling and visibility are OK
Clouds: unknown
Weather: no significant weather observed at this time

METAR text: OIII 191630Z 27006KT 9999 FEW040 03/M09 Q1016 A3003
Conditions at: OIII (TEHRAN/MEHRABAD , IR) observed 1630 UTC 19 January 2019
Temperature: 3.0°C (37°F)
Dewpoint: -9.0°C (16°F) [RH = 41%]
Pressure (altimeter): 30.00 inches Hg (1016.0 mb)
Winds: from the W (270 degrees) at 7 MPH (6 knots; 3.1 m/s)
Visibility: 6 or more miles (10+ km)
Ceiling: at least 12,000 feet AGL
Clouds: few clouds at 4000 feet AGL
Weather: no significant weather observed at this time

METAR text: OIII 191600Z 32004KT 9999 FEW040 SCT200 03/M10 Q1016 A3002 NOSIG
Conditions at: OIII (TEHRAN/MEHRABAD , IR) observed 1600 UTC 19 January 2019
Temperature: 3.0°C (37°F)
Dewpoint: -10.0°C (14°F) [RH = 38%]
Pressure (altimeter): 30.00 inches Hg (1016.0 mb)
Winds: from the NW (320 degrees) at 5 MPH (4 knots; 2.1 m/s)
Visibility: 6 or more miles (10+ km)
Ceiling: at least 12,000 feet AGL
Clouds: few clouds at 4000 feet AGL
scattered clouds at 20000 feet AGL
Weather: no significant weather observed at this time

METAR text: OIII 191530Z 30006KT 9999 FEW040 SCT200 03/M10 Q1016 A3002
Conditions at: OIII (TEHRAN/MEHRABAD , IR) observed 1530 UTC 19 January 2019
Temperature: 3.0°C (37°F)
Dewpoint: -10.0°C (14°F) [RH = 38%]
Pressure (altimeter): 30.00 inches Hg (1016.0 mb)
Winds: from the WNW (300 degrees) at 7 MPH (6 knots; 3.1 m/s)
Visibility: 6 or more miles (10+ km)
Ceiling: at least 12,000 feet AGL
Clouds: few clouds at 4000 feet AGL
scattered clouds at 20000 feet AGL
Weather: no significant weather observed at this time

METAR text: OIII 191500Z 25006KT 9999 FEW040 SCT200 03/M10 Q1016 A3001
Conditions at: OIII (TEHRAN/MEHRABAD , IR) observed 1500 UTC 19 January 2019
Temperature: 3.0°C (37°F)
Dewpoint: -10.0°C (14°F) [RH = 38%]
Pressure (altimeter): 30.00 inches Hg (1016.0 mb)
Winds: from the WSW (250 degrees) at 7 MPH (6 knots; 3.1 m/s)
Visibility: 6 or more miles (10+ km)
Ceiling: at least 12,000 feet AGL
Clouds: few clouds at 4000 feet AGL
scattered clouds at 20000 feet AGL
Weather: no significant weather observed at this time

METAR text: OIII 191430Z 28006KT 9999 FEW040 SCT200 03/M08 Q1016 A3001
Conditions at: OIII (TEHRAN/MEHRABAD , IR) observed 1430 UTC 19 January 2019
Temperature: 3.0°C (37°F)
Dewpoint: -8.0°C (18°F) [RH = 44%]
Pressure (altimeter): 30.00 inches Hg (1016.0 mb)
Winds: from the W (280 degrees) at 7 MPH (6 knots; 3.1 m/s)
Visibility: 6 or more miles (10+ km)
Ceiling: at least 12,000 feet AGL
Clouds: few clouds at 4000 feet AGL
scattered clouds at 20000 feet AGL
Weather: no significant weather observed at this time

METAR text: OIII 191400Z 24012KT 9999 FEW040 SCT200 04/M07 Q1015 A3000 NOSIG
Conditions at: OIII (TEHRAN/MEHRABAD , IR) observed 1400 UTC 19 January 2019
Temperature: 4.0°C (39°F)
Dewpoint: -7.0°C (19°F) [RH = 44%]
Pressure (altimeter): 29.97 inches Hg (1015.0 mb)
Winds: from the WSW (240 degrees) at 14 MPH (12 knots; 6.2 m/s)
Visibility: 6 or more miles (10+ km)
Ceiling: at least 12,000 feet AGL
Clouds: few clouds at 4000 feet AGL
scattered clouds at 20000 feet AGL
Weather: no significant weather observed at this time

METAR text: OIII 191330Z 24010KT 9999 FEW040 SCT200 04/M07 Q1015 A3000
Conditions at: OIII (TEHRAN/MEHRABAD , IR) observed 1330 UTC 19 January 2019
Temperature: 4.0°C (39°F)
Dewpoint: -7.0°C (19°F) [RH = 44%]
Pressure (altimeter): 29.97 inches Hg (1015.0 mb)
Winds: from the WSW (240 degrees) at 12 MPH (10 knots; 5.1 m/s)
Visibility: 6 or more miles (10+ km)
Ceiling: at least 12,000 feet AGL
Clouds: few clouds at 4000 feet AGL
scattered clouds at 20000 feet AGL
Weather: no significant weather observed at this time

METAR text: OIII 191300Z 21008KT 9999 FEW040 BKN200 04/M08 Q1015 A3000
Conditions at: OIII (TEHRAN/MEHRABAD , IR) observed 1300 UTC 19 January 2019
Temperature: 4.0°C (39°F)
Dewpoint: -8.0°C (18°F) [RH = 41%]
Pressure (altimeter): 29.97 inches Hg (1015.0 mb)
Winds: from the SSW (210 degrees) at 9 MPH (8 knots; 4.1 m/s)
Visibility: 6 or more miles (10+ km)
Ceiling: 20000 feet AGL
Clouds: few clouds at 4000 feet AGL
broken clouds at 20000 feet AGL
Weather: no significant weather observed at this time

METAR text: OIII 191230Z 22006KT 9999 FEW040 BKN200 05/M08 Q1015 A2999
Conditions at: OIII (TEHRAN/MEHRABAD , IR) observed 1230 UTC 19 January 2019
Temperature: 5.0°C (41°F)
Dewpoint: -8.0°C (18°F) [RH = 38%]
Pressure (altimeter): 29.97 inches Hg (1015.0 mb)
Winds: from the SW (220 degrees) at 7 MPH (6 knots; 3.1 m/s)
Visibility: 6 or more miles (10+ km)
Ceiling: 20000 feet AGL
Clouds: few clouds at 4000 feet AGL
broken clouds at 20000 feet AGL
Weather: no significant weather observed at this time

METAR text: OIII 191200Z 24006KT 9999 FEW040 BKN200 05/M08 Q1015 A2999
Conditions at: OIII (TEHRAN/MEHRABAD , IR) observed 1200 UTC 19 January 2019
Temperature: 5.0°C (41°F)
Dewpoint: -8.0°C (18°F) [RH = 38%]
Pressure (altimeter): 29.97 inches Hg (1015.0 mb)
Winds: from the WSW (240 degrees) at 7 MPH (6 knots; 3.1 m/s)
Visibility: 6 or more miles (10+ km)
Ceiling: 20000 feet AGL
Clouds: few clouds at 4000 feet AGL
broken clouds at 20000 feet AGL
Weather: no significant weather observed at this time

METAR text: OIII 191130Z 27008KT 9999 FEW040 BKN200 04/M07 Q1015 A2999
Conditions at: OIII (TEHRAN/MEHRABAD , IR) observed 1130 UTC 19 January 2019
Temperature: 4.0°C (39°F)
Dewpoint: -7.0°C (19°F) [RH = 44%]
Pressure (altimeter): 29.97 inches Hg (1015.0 mb)
Winds: from the W (270 degrees) at 9 MPH (8 knots; 4.1 m/s)
Visibility: 6 or more miles (10+ km)
Ceiling: 20000 feet AGL
Clouds: few clouds at 4000 feet AGL
broken clouds at 20000 feet AGL
Weather: no significant weather observed at this time

Forecast for: OIII (TEHRAN/MEHRABAD , IR)
Text: TAF OIII 202310Z 2100/2206 28006KT 7000 NSC
Forecast period: 0000 to 0300 UTC 21 January 2019
Forecast type: FROM: standard forecast or significant change
Winds: from the W (280 degrees) at 7 MPH (6 knots; 3.1 m/s)
Visibility: 4 miles (7 km)
Ceiling: unknown
Clouds: missing
Weather: no significant weather forecast for this period
Text: BECMG 2103/2105 4000 HZ
Forecast period: 0300 to 0800 UTC 21 January 2019
Forecast type: BECOMING: Conditions expected to become as follows by 0500 UTC 21 January 2019
Winds: from the W (280 degrees) at 7 MPH (6 knots; 3.1 m/s)
Visibility: 2.49 miles (4.01 km)
Ceiling: unknown
Clouds: missing
Weather: HZ  (haze)
Text: BECMG 2108/2110 7000
Forecast period: 0800 UTC 21 January 2019 to 0600 UTC 22 January 2019
Forecast type: BECOMING: Conditions expected to become as follows by 1000 UTC 21 January 2019
Winds: from the W (280 degrees) at 7 MPH (6 knots; 3.1 m/s)
Visibility: 4 miles (7 km)
Ceiling: unknown
Clouds: missing
Weather: HZ  (haze)
Text: TEMPO 2201/2205 4000 HZ
Forecast period: 0100 to 0500 UTC 22 January 2019
Forecast type: TEMPORARY: The following changes expected for less than half the time period
Visibility: 2.49 miles (4.01 km)
Ceiling: unknown
Clouds: missing
Weather: HZ  (haze)